Terminal Aerodrome Forecast
Issued by NWS

Home | Current Version | Previous Version | Text Only | Print | Product List | Glossary On
Versions: 1 2 3 4 5 6 7 8 9 10 11 12 13
000
FTUS43 KIWX 211200 AAA
TAFSBN
TAF AMD
KSBN 211254Z 2113/2212 16007KT P6SM SCT030 OVC040
      TEMPO 2113/2116 BKN030=

USA.gov is the U.S. government's official web portal to all federal, state and local government web resources and services.